Weed Heights, Nevada
Current Conditions -  °F | °C
As of 2:05 PM on Friday 24 Oct 2014 (Local Time) from KMEV Reporting Station
Clear Clear  
Wind Chill: 79°   Ceiling: Unl
Heat Index: 79°   Visibility: 10mi
Dew Point: 18°   Wind: 21mph
Humidity: 10%   Direction: 190°S
Pressure: 30"   Gusts: 30mph
Location:  38.8785°N, 119.096°W
Report Text: KMEV 242105Z AUTO 19018G26KT 10SM CLR 26/M08 A3000 RMK AO2
Loading
Personal Weather Stations






























Interactive Weather Map
Tropical Storm Tracking
New forecast layout! Learn more

10-Day Weather Forecast

Advertisements
Track Severe Weather on mobile